Imperial Beach, California
Current Conditions -  °F | °C
As of 6:56 PM on Tuesday 21 Oct 2014 (Local Time) from KNRS Reporting Station
Broken Clouds Broken Clouds  
Wind Chill: 69°   Ceiling: 20000
Heat Index: 69°   Visibility: 10mi
Dew Point: 63°   Wind: 9mph
Humidity: 81%   Direction: 310°NW
Pressure: 29.86"   Gusts: NA
Location:  32.58°N, 117.11°W
Report Text: KNRS 220156Z 31008KT 10SM FEW018 BKN200 21/17 A2986 RMK AO2 SLP112 T02060172 $
Loading
Personal Weather Stations






























Interactive Weather Map
Tropical Storm Tracking
New forecast layout! Learn more

10-Day Weather Forecast

Advertisements
Track Severe Weather on mobile